Destin, Florida
Current Conditions -  °F | °C
As of 12:53 AM on Thursday 27 Nov 2014 (Local Time) from KDTS Reporting Station
Clear Clear  
Wind Chill: 62°   Ceiling: Unl
Heat Index: 62°   Visibility: 10mi
Dew Point: 48°   Wind: 7mph
Humidity: 60%   Direction: 280°W
Pressure: 30.2"   Gusts: NA
Location:  30.39°N, 86.49°W
Report Text: KDTS 270653Z AUTO 28006KT 10SM CLR 17/09 A3020 RMK AO2 SLP227 T01670089 TSNO
Loading
Personal Weather Stations






























Interactive Weather Map New forecast layout! Learn more

10-Day Weather Forecast

Advertisements
Track Severe Weather on mobile